UYF weather

Madison County Airport
London, Ohio, United States

Public forecast

Using degrees Fahrenheit for public forecast. Weather courtesy of forecast.io.

Current aviation weather report (METAR) for Madison County Airport

Retrieved 2019/12/12 15:35 UTC (4 minutes ago):

KUYF 121535Z AUTO 15008KT 10SM CLR M01/M04 A3054 RMK AO2

Closest aviation forecast (TAF) to Madison County Airport

Closest forecast is Rickenbacker International Airport, 25.6 nm (47.5 km) ESE. Retrieved 2019/12/12 12:24 UTC (3 hours ago):

TAF KLCK 121120Z 1212/1312 12004KT P6SM SCT250 FM121700 14006KT P6SM BKN250